South Range, Wisconsin
Current Conditions -  °F | °C
As of 2:35 AM on Sunday 23 Nov 2014 (Local Time) from KSUW Reporting Station
Haze Haze  
Wind Chill: 31°   Ceiling: 200
Heat Index: 36°   Visibility: 1.5mi
Dew Point: 36°   Wind: 6mph
Humidity: 100%   Direction: 80°E
Pressure: 29.48"   Gusts: NA
Location:  46.61°N, 91.98°W
Report Text: KSUW 230835Z AUTO 08005KT 1 1/2SM BR OVC002 02/02 A2948 RMK AO2 T00210021
Loading
Personal Weather Stations






























Interactive Weather Map New forecast layout! Learn more

10-Day Weather Forecast

Advertisements
Track Severe Weather on mobile